sensor_id;sensor_type;location;lat;lon;timestamp;pressure;altitude;pressure_sealevel;temperature;humidity
14295;BME280;7231;59.370;18.016;2023-05-23T00:01:32;101357.25;;;13.67;50.62
14295;BME280;7231;59.370;18.016;2023-05-23T00:04:03;101418.59;;;13.97;50.59
14295;BME280;7231;59.370;18.016;2023-05-23T00:06:31;101430.13;;;14.01;50.76
14295;BME280;7231;59.370;18.016;2023-05-23T00:09:00;101429.06;;;13.94;51.04
14295;BME280;7231;59.370;18.016;2023-05-23T00:11:28;101419.38;;;13.93;51.18
14295;BME280;7231;59.370;18.016;2023-05-23T00:13:56;101424.56;;;13.89;51.18
14295;BME280;7231;59.370;18.016;2023-05-23T00:16:26;101405.81;;;13.77;51.21
14295;BME280;7231;59.370;18.016;2023-05-23T00:18:56;101411.19;;;13.81;51.34
14295;BME280;7231;59.370;18.016;2023-05-23T00:21:25;101400.38;;;13.71;51.46
14295;BME280;7231;59.370;18.016;2023-05-23T00:23:53;101416.34;;;13.77;51.39
14295;BME280;7231;59.370;18.016;2023-05-23T00:26:21;101399.41;;;13.67;51.70
14295;BME280;7231;59.370;18.016;2023-05-23T00:28:50;101406.53;;;13.71;51.51
14295;BME280;7231;59.370;18.016;2023-05-23T00:31:21;101408.09;;;13.63;51.83
14295;BME280;7231;59.370;18.016;2023-05-23T00:33:49;101412.28;;;13.55;51.88
14295;BME280;7231;59.370;18.016;2023-05-23T00:36:19;101412.28;;;13.55;51.94
14295;BME280;7231;59.370;18.016;2023-05-23T00:38:48;101404.38;;;13.55;52.01
14295;BME280;7231;59.370;18.016;2023-05-23T00:41:16;101402.69;;;13.57;51.97
14295;BME280;7231;59.370;18.016;2023-05-23T00:43:45;101392.63;;;13.41;52.10
14295;BME280;7231;59.370;18.016;2023-05-23T00:46:13;101391.69;;;13.39;52.48
14295;BME280;7231;59.370;18.016;2023-05-23T00:48:42;101382.78;;;13.33;52.98
14295;BME280;7231;59.370;18.016;2023-05-23T00:51:10;101395.31;;;13.44;52.85
14295;BME280;7231;59.370;18.016;2023-05-23T00:53:40;101388.13;;;13.37;53.10
14295;BME280;7231;59.370;18.016;2023-05-23T00:56:08;101396.78;;;13.32;53.50
14295;BME280;7231;59.370;18.016;2023-05-23T00:58:38;101391.53;;;13.32;53.51
14295;BME280;7231;59.370;18.016;2023-05-23T01:01:07;101393.28;;;13.32;53.48
14295;BME280;7231;59.370;18.016;2023-05-23T01:03:35;101381.69;;;13.25;53.67
14295;BME280;7231;59.370;18.016;2023-05-23T01:06:04;101386.09;;;13.26;53.35
14295;BME280;7231;59.370;18.016;2023-05-23T01:08:32;101383.38;;;13.23;53.79
14295;BME280;7231;59.370;18.016;2023-05-23T01:11:07;101380.53;;;13.16;53.77
14295;BME280;7231;59.370;18.016;2023-05-23T01:13:41;101356.47;;;13.02;53.68
14295;BME280;7231;59.370;18.016;2023-05-23T01:16:12;101387.44;;;13.12;53.82
14295;BME280;7231;59.370;18.016;2023-05-23T01:18:50;101359.25;;;13.08;53.59
14295;BME280;7231;59.370;18.016;2023-05-23T01:21:24;101387.06;;;13.30;53.39
14295;BME280;7231;59.370;18.016;2023-05-23T01:24:07;101390.59;;;13.30;53.46
14295;BME280;7231;59.370;18.016;2023-05-23T01:27:00;101389.66;;;13.28;53.76
14295;BME280;7231;59.370;18.016;2023-05-23T01:29:32;101370.72;;;13.10;53.58
14295;BME280;7231;59.370;18.016;2023-05-23T01:32:02;101396.63;;;13.26;53.72
14295;BME280;7231;59.370;18.016;2023-05-23T01:34:34;101387.88;;;13.27;54.05
14295;BME280;7231;59.370;18.016;2023-05-23T01:37:07;101379.72;;;13.17;54.52
14295;BME280;7231;59.370;18.016;2023-05-23T01:39:35;101397.50;;;13.25;54.44
14295;BME280;7231;59.370;18.016;2023-05-23T01:42:03;101339.50;;;12.89;54.37
14295;BME280;7231;59.370;18.016;2023-05-23T01:44:34;101396.25;;;13.13;55.14
14295;BME280;7231;59.370;18.016;2023-05-23T01:47:03;101388.31;;;13.11;55.86
14295;BME280;7231;59.370;18.016;2023-05-23T01:49:33;101392.63;;;13.09;56.31
14295;BME280;7231;59.370;18.016;2023-05-23T01:52:02;101373.75;;;12.91;56.37
14295;BME280;7231;59.370;18.016;2023-05-23T01:54:32;101384.44;;;12.97;56.92
14295;BME280;7231;59.370;18.016;2023-05-23T01:57:01;101390.59;;;12.97;56.98
14295;BME280;7231;59.370;18.016;2023-05-23T01:59:29;101379.75;;;12.85;57.19
14295;BME280;7231;59.370;18.016;2023-05-23T02:01:59;101378.84;;;12.85;57.30
14295;BME280;7231;59.370;18.016;2023-05-23T02:04:27;101391.38;;;12.93;57.25
14295;BME280;7231;59.370;18.016;2023-05-23T02:06:55;101387.97;;;12.97;57.36
14295;BME280;7231;59.370;18.016;2023-05-23T02:09:23;101363.09;;;12.86;57.39
14295;BME280;7231;59.370;18.016;2023-05-23T02:11:52;101383.44;;;12.92;57.16
14295;BME280;7231;59.370;18.016;2023-05-23T02:14:20;101381.84;;;12.98;56.53
14295;BME280;7231;59.370;18.016;2023-05-23T02:16:49;101207.34;;;12.02;56.68
14295;BME280;7231;59.370;18.016;2023-05-23T02:19:19;101376.63;;;13.01;56.22
14295;BME280;7231;59.370;18.016;2023-05-23T02:21:48;101368.69;;;12.98;56.40
14295;BME280;7231;59.370;18.016;2023-05-23T02:24:16;101358.16;;;12.98;55.65
14295;BME280;7231;59.370;18.016;2023-05-23T02:26:44;101376.88;;;13.11;55.52
14295;BME280;7231;59.370;18.016;2023-05-23T02:29:15;101376.22;;;13.18;55.45
14295;BME280;7231;59.370;18.016;2023-05-23T02:31:43;101370.22;;;13.23;55.07
14295;BME280;7231;59.370;18.016;2023-05-23T02:34:11;101373.94;;;13.31;55.13
14295;BME280;7231;59.370;18.016;2023-05-23T02:36:40;101369.72;;;13.38;55.29
14295;BME280;7231;59.370;18.016;2023-05-23T02:39:08;101360.00;;;13.36;55.04
14295;BME280;7231;59.370;18.016;2023-05-23T02:41:36;101360.03;;;13.37;55.25
14295;BME280;7231;59.370;18.016;2023-05-23T02:44:04;101361.84;;;13.40;55.03
14295;BME280;7231;59.370;18.016;2023-05-23T02:46:32;101346.88;;;13.37;54.78
14295;BME280;7231;59.370;18.016;2023-05-23T02:49:00;101353.19;;;13.44;54.25
14295;BME280;7231;59.370;18.016;2023-05-23T02:51:29;101349.75;;;13.48;54.37
14295;BME280;7231;59.370;18.016;2023-05-23T02:53:58;101343.69;;;13.50;54.61
14295;BME280;7231;59.370;18.016;2023-05-23T02:56:26;101336.59;;;13.48;54.63
14295;BME280;7231;59.370;18.016;2023-05-23T02:58:54;101345.41;;;13.50;55.03
14295;BME280;7231;59.370;18.016;2023-05-23T03:01:23;101341.00;;;13.49;55.24
14295;BME280;7231;59.370;18.016;2023-05-23T03:03:51;101345.38;;;13.48;55.23
14295;BME280;7231;59.370;18.016;2023-05-23T03:06:19;101329.50;;;13.45;55.09
14295;BME280;7231;59.370;18.016;2023-05-23T03:08:48;101328.63;;;13.45;54.89
14295;BME280;7231;59.370;18.016;2023-05-23T03:11:18;101331.22;;;13.43;54.86
14295;BME280;7231;59.370;18.016;2023-05-23T03:13:46;101328.50;;;13.40;55.10
14295;BME280;7231;59.370;18.016;2023-05-23T03:16:14;101329.34;;;13.39;55.07
14295;BME280;7231;59.370;18.016;2023-05-23T03:18:42;101290.19;;;13.17;54.92
14295;BME280;7231;59.370;18.016;2023-05-23T03:21:10;101317.72;;;13.29;55.12
14295;BME280;7231;59.370;18.016;2023-05-23T03:23:38;101313.31;;;13.30;55.56
14295;BME280;7231;59.370;18.016;2023-05-23T03:26:06;101311.53;;;13.29;55.61
14295;BME280;7231;59.370;18.016;2023-05-23T03:28:35;101306.34;;;13.32;55.98
14295;BME280;7231;59.370;18.016;2023-05-23T03:31:03;101307.31;;;13.36;56.14
14295;BME280;7231;59.370;18.016;2023-05-23T03:33:32;101311.84;;;13.41;56.40
14295;BME280;7231;59.370;18.016;2023-05-23T03:36:00;101297.94;;;13.47;56.08
14295;BME280;7231;59.370;18.016;2023-05-23T03:38:28;101299.00;;;13.55;56.67
14295;BME280;7231;59.370;18.016;2023-05-23T03:40:56;101297.38;;;13.61;56.72
14295;BME280;7231;59.370;18.016;2023-05-23T03:43:24;101299.22;;;13.64;56.54
14295;BME280;7231;59.370;18.016;2023-05-23T03:45:53;101297.56;;;13.69;56.90
14295;BME280;7231;59.370;18.016;2023-05-23T03:48:21;101289.81;;;13.75;56.80
14295;BME280;7231;59.370;18.016;2023-05-23T03:50:49;101291.63;;;13.78;56.85
14295;BME280;7231;59.370;18.016;2023-05-23T03:53:17;101294.28;;;13.79;56.89
14295;BME280;7231;59.370;18.016;2023-05-23T03:55:45;101132.56;;;12.94;57.00
14295;BME280;7231;59.370;18.016;2023-05-23T03:58:14;101285.59;;;13.83;57.30
14295;BME280;7231;59.370;18.016;2023-05-23T04:00:43;101287.38;;;13.84;57.53
14295;BME280;7231;59.370;18.016;2023-05-23T04:03:12;101286.56;;;13.88;57.52
14295;BME280;7231;59.370;18.016;2023-05-23T04:05:41;101283.94;;;13.88;57.84
14295;BME280;7231;59.370;18.016;2023-05-23T04:08:09;101253.81;;;13.77;57.96
14295;BME280;7231;59.370;18.016;2023-05-23T04:10:37;101266.28;;;13.84;58.08
14295;BME280;7231;59.370;18.016;2023-05-23T04:13:05;101269.97;;;13.92;57.96
14295;BME280;7231;59.370;18.016;2023-05-23T04:15:33;101275.31;;;13.95;58.16
14295;BME280;7231;59.370;18.016;2023-05-23T04:18:01;101275.38;;;13.98;58.09
14295;BME280;7231;59.370;18.016;2023-05-23T04:20:31;101256.81;;;13.94;58.46
14295;BME280;7231;59.370;18.016;2023-05-23T04:22:59;101272.09;;;14.10;58.43
14295;BME280;7231;59.370;18.016;2023-05-23T04:25:27;101244.75;;;14.05;58.43
14295;BME280;7231;59.370;18.016;2023-05-23T04:27:55;101261.00;;;14.26;58.35
14295;BME280;7231;59.370;18.016;2023-05-23T04:30:23;101253.25;;;14.36;58.37
14295;BME280;7231;59.370;18.016;2023-05-23T04:32:51;101247.38;;;14.47;58.17
14295;BME280;7231;59.370;18.016;2023-05-23T04:35:19;101247.56;;;14.58;58.24
14295;BME280;7231;59.370;18.016;2023-05-23T04:37:49;101245.13;;;14.70;58.07
14295;BME280;7231;59.370;18.016;2023-05-23T04:40:22;101241.00;;;14.86;58.17
14295;BME280;7231;59.370;18.016;2023-05-23T04:42:50;101228.03;;;14.98;57.72
14295;BME280;7231;59.370;18.016;2023-05-23T04:45:18;101233.53;;;15.13;57.30
14295;BME280;7231;59.370;18.016;2023-05-23T04:47:46;101083.56;;;14.37;57.10
14295;BME280;7231;59.370;18.016;2023-05-23T04:50:14;101232.13;;;15.37;56.79
14295;BME280;7231;59.370;18.016;2023-05-23T04:52:42;101234.97;;;15.49;56.51
14295;BME280;7231;59.370;18.016;2023-05-23T04:55:12;101225.41;;;15.57;56.07
14295;BME280;7231;59.370;18.016;2023-05-23T04:57:40;101223.72;;;15.65;55.74
14295;BME280;7231;59.370;18.016;2023-05-23T05:00:09;101220.25;;;15.69;55.33
14295;BME280;7231;59.370;18.016;2023-05-23T05:02:38;101221.28;;;15.79;55.05
14295;BME280;7231;59.370;18.016;2023-05-23T05:05:07;101222.22;;;15.84;54.75
14295;BME280;7231;59.370;18.016;2023-05-23T05:07:35;101223.19;;;15.92;54.57
14295;BME280;7231;59.370;18.016;2023-05-23T05:10:03;101189.59;;;15.83;54.27
14295;BME280;7231;59.370;18.016;2023-05-23T05:12:33;101204.81;;;16.03;53.96
14295;BME280;7231;59.370;18.016;2023-05-23T05:15:02;101206.63;;;16.07;53.82
14295;BME280;7231;59.370;18.016;2023-05-23T05:17:30;101202.25;;;16.09;53.38
14295;BME280;7231;59.370;18.016;2023-05-23T05:20:03;101184.47;;;15.97;53.11
14295;BME280;7231;59.370;18.016;2023-05-23T05:22:34;101188.16;;;16.11;53.12
14295;BME280;7231;59.370;18.016;2023-05-23T05:25:08;101199.75;;;16.24;52.56
14295;BME280;7231;59.370;18.016;2023-05-23T05:27:39;101187.38;;;16.20;52.47
14295;BME280;7231;59.370;18.016;2023-05-23T05:30:08;101192.75;;;16.29;52.36
14295;BME280;7231;59.370;18.016;2023-05-23T05:32:36;101192.81;;;16.35;52.20
14295;BME280;7231;59.370;18.016;2023-05-23T05:35:05;101201.72;;;16.42;52.09
14295;BME280;7231;59.370;18.016;2023-05-23T05:37:34;101191.09;;;16.40;52.00
14295;BME280;7231;59.370;18.016;2023-05-23T05:40:03;101200.91;;;16.49;52.17
14295;BME280;7231;59.370;18.016;2023-05-23T05:42:34;101200.97;;;16.56;52.01
14295;BME280;7231;59.370;18.016;2023-05-23T05:45:04;101198.38;;;16.63;51.92
14295;BME280;7231;59.370;18.016;2023-05-23T05:47:32;101193.22;;;16.75;51.91
14295;BME280;7231;59.370;18.016;2023-05-23T05:50:03;101197.66;;;16.77;51.35
14295;BME280;7231;59.370;18.016;2023-05-23T05:52:31;101185.34;;;16.84;51.42
14295;BME280;7231;59.370;18.016;2023-05-23T05:55:00;101191.63;;;16.95;51.13
14295;BME280;7231;59.370;18.016;2023-05-23T05:57:28;101190.78;;;16.99;50.78
14295;BME280;7231;59.370;18.016;2023-05-23T05:59:56;101184.63;;;17.05;50.61
14295;BME280;7231;59.370;18.016;2023-05-23T06:02:25;101190.03;;;17.18;50.61
14295;BME280;7231;59.370;18.016;2023-05-23T06:04:54;101183.91;;;17.30;50.36
14295;BME280;7231;59.370;18.016;2023-05-23T06:07:22;101191.91;;;17.35;50.07
14295;BME280;7231;59.370;18.016;2023-05-23T06:09:50;101191.00;;;17.34;49.67
14295;BME280;7231;59.370;18.016;2023-05-23T06:12:18;101180.38;;;17.30;49.63
14295;BME280;7231;59.370;18.016;2023-05-23T06:14:46;101180.41;;;17.33;49.92
14295;BME280;7231;59.370;18.016;2023-05-23T06:17:14;101180.44;;;17.42;49.58
14295;BME280;7231;59.370;18.016;2023-05-23T06:19:44;101181.34;;;17.45;49.03
14295;BME280;7231;59.370;18.016;2023-05-23T06:22:12;101178.72;;;17.50;49.15
14295;BME280;7231;59.370;18.016;2023-05-23T06:24:40;101182.31;;;17.60;49.03
14295;BME280;7231;59.370;18.016;2023-05-23T06:27:08;101173.50;;;17.65;48.59
14295;BME280;7231;59.370;18.016;2023-05-23T06:29:36;101171.78;;;17.67;48.47
14295;BME280;7231;59.370;18.016;2023-05-23T06:32:06;101170.91;;;17.70;48.31
14295;BME280;7231;59.370;18.016;2023-05-23T06:34:34;101162.97;;;17.74;48.37
14295;BME280;7231;59.370;18.016;2023-05-23T06:37:04;101165.63;;;17.80;48.32
14295;BME280;7231;59.370;18.016;2023-05-23T06:39:31;101170.94;;;17.83;48.22
14295;BME280;7231;59.370;18.016;2023-05-23T06:42:00;101169.19;;;17.87;48.15
14295;BME280;7231;59.370;18.016;2023-05-23T06:44:28;101171.88;;;17.93;48.00
14295;BME280;7231;59.370;18.016;2023-05-23T06:46:56;101170.13;;;18.00;47.76
14295;BME280;7231;59.370;18.016;2023-05-23T06:49:24;101149.78;;;17.97;48.11
14295;BME280;7231;59.370;18.016;2023-05-23T06:51:52;101171.94;;;18.19;47.81
14295;BME280;7231;59.370;18.016;2023-05-23T06:54:22;101159.56;;;18.20;47.70
14295;BME280;7231;59.370;18.016;2023-05-23T06:56:50;101141.84;;;18.20;47.51
14295;BME280;7231;59.370;18.016;2023-05-23T06:59:18;101148.94;;;18.45;47.00
14295;BME280;7231;59.370;18.016;2023-05-23T07:01:46;101163.16;;;18.64;46.96
14295;BME280;7231;59.370;18.016;2023-05-23T07:04:14;101133.03;;;18.62;46.43
14295;BME280;7231;59.370;18.016;2023-05-23T07:06:42;101148.09;;;18.85;46.23
14295;BME280;7231;59.370;18.016;2023-05-23T07:09:10;101163.13;;;19.02;45.98
14295;BME280;7231;59.370;18.016;2023-05-23T07:11:40;101155.13;;;19.10;45.86
14295;BME280;7231;59.370;18.016;2023-05-23T07:14:08;101157.78;;;19.19;45.25
14295;BME280;7231;59.370;18.016;2023-05-23T07:16:38;101160.41;;;19.27;44.60
14295;BME280;7231;59.370;18.016;2023-05-23T07:19:07;101166.59;;;19.35;44.07
14295;BME280;7231;59.370;18.016;2023-05-23T07:21:35;101155.03;;;19.48;44.00
14295;BME280;7231;59.370;18.016;2023-05-23T07:24:03;101155.00;;;19.63;43.67
14295;BME280;7231;59.370;18.016;2023-05-23T07:26:31;101155.84;;;19.73;43.76
14295;BME280;7231;59.370;18.016;2023-05-23T07:29:00;101145.13;;;19.93;43.88
14295;BME280;7231;59.370;18.016;2023-05-23T07:31:28;101155.50;;;20.38;43.47
14295;BME280;7231;59.370;18.016;2023-05-23T07:33:57;101166.81;;;20.71;42.73
14295;BME280;7231;59.370;18.016;2023-05-23T07:36:25;101140.66;;;21.06;41.53
14295;BME280;7231;59.370;18.016;2023-05-23T07:38:53;101144.00;;;21.30;40.90
14295;BME280;7231;59.370;18.016;2023-05-23T07:41:21;101138.38;;;21.54;39.29
14295;BME280;7231;59.370;18.016;2023-05-23T07:43:49;101138.31;;;21.59;39.24
14295;BME280;7231;59.370;18.016;2023-05-23T07:46:18;101138.94;;;21.81;38.98
14295;BME280;7231;59.370;18.016;2023-05-23T07:48:48;101128.72;;;22.13;38.93
14295;BME280;7231;59.370;18.016;2023-05-23T07:51:16;101140.13;;;22.24;38.19
14295;BME280;7231;59.370;18.016;2023-05-23T07:53:47;101138.72;;;22.56;38.11
14295;BME280;7231;59.370;18.016;2023-05-23T07:56:15;101118.50;;;22.93;37.37
14295;BME280;7231;59.370;18.016;2023-05-23T07:58:43;101138.16;;;22.91;35.35
14295;BME280;7231;59.370;18.016;2023-05-23T08:01:11;101137.47;;;22.78;35.90
14295;BME280;7231;59.370;18.016;2023-05-23T08:03:40;101134.44;;;22.46;35.37
14295;BME280;7231;59.370;18.016;2023-05-23T08:06:10;101137.50;;;22.75;34.93
14295;BME280;7231;59.370;18.016;2023-05-23T08:08:38;101132.47;;;22.57;34.73
14295;BME280;7231;59.370;18.016;2023-05-23T08:11:06;101131.25;;;22.76;35.40
14295;BME280;7231;59.370;18.016;2023-05-23T08:13:34;101113.81;;;23.06;35.03
14295;BME280;7231;59.370;18.016;2023-05-23T08:16:02;101132.94;;;23.31;34.00
14295;BME280;7231;59.370;18.016;2023-05-23T08:18:30;101128.31;;;23.39;34.34
14295;BME280;7231;59.370;18.016;2023-05-23T08:21:00;101133.38;;;23.54;33.94
14295;BME280;7231;59.370;18.016;2023-05-23T08:23:28;101135.38;;;23.85;33.99
14295;BME280;7231;59.370;18.016;2023-05-23T08:25:56;101129.97;;;24.28;33.45
14295;BME280;7231;59.370;18.016;2023-05-23T08:28:24;101121.69;;;23.99;32.31
14295;BME280;7231;59.370;18.016;2023-05-23T08:30:52;101090.91;;;23.78;33.23
14295;BME280;7231;59.370;18.016;2023-05-23T08:33:23;101131.31;;;24.07;32.68
14295;BME280;7231;59.370;18.016;2023-05-23T08:35:50;101115.06;;;23.75;33.08
14295;BME280;7231;59.370;18.016;2023-05-23T08:38:21;101129.69;;;24.00;32.96
14295;BME280;7231;59.370;18.016;2023-05-23T08:40:50;101133.81;;;24.15;32.69
14295;BME280;7231;59.370;18.016;2023-05-23T08:43:18;101128.34;;;24.58;32.14
14295;BME280;7231;59.370;18.016;2023-05-23T08:45:48;101109.13;;;24.39;31.93
14295;BME280;7231;59.370;18.016;2023-05-23T08:48:19;101081.25;;;24.09;31.33
14295;BME280;7231;59.370;18.016;2023-05-23T08:50:49;101106.91;;;24.19;31.42
14295;BME280;7231;59.370;18.016;2023-05-23T08:53:21;101124.97;;;24.11;30.93
14295;BME280;7231;59.370;18.016;2023-05-23T08:55:50;101117.66;;;24.18;31.60
14295;BME280;7231;59.370;18.016;2023-05-23T08:58:20;101115.63;;;25.00;31.08
14295;BME280;7231;59.370;18.016;2023-05-23T09:00:48;101121.91;;;25.63;30.85
14295;BME280;7231;59.370;18.016;2023-05-23T09:03:19;101120.97;;;25.64;30.00
14295;BME280;7231;59.370;18.016;2023-05-23T09:05:48;101112.34;;;25.52;30.00
14295;BME280;7231;59.370;18.016;2023-05-23T09:08:17;101110.72;;;25.16;30.11
14295;BME280;7231;59.370;18.016;2023-05-23T09:10:47;101112.06;;;25.00;30.38
14295;BME280;7231;59.370;18.016;2023-05-23T09:13:16;101112.31;;;25.23;30.30
14295;BME280;7231;59.370;18.016;2023-05-23T09:15:56;100971.59;;;25.02;30.36
14295;BME280;7231;59.370;18.016;2023-05-23T09:18:26;101104.81;;;26.23;29.75
14295;BME280;7231;59.370;18.016;2023-05-23T09:20:54;101113.97;;;26.71;29.26
14295;BME280;7231;59.370;18.016;2023-05-23T09:23:22;101114.69;;;26.50;28.88
14295;BME280;7231;59.370;18.016;2023-05-23T09:25:52;101103.03;;;25.95;29.45
14295;BME280;7231;59.370;18.016;2023-05-23T09:28:20;101111.22;;;26.18;29.35
14295;BME280;7231;59.370;18.016;2023-05-23T09:30:56;101116.19;;;26.03;29.13
14295;BME280;7231;59.370;18.016;2023-05-23T09:33:28;101083.28;;;25.68;29.21
14295;BME280;7231;59.370;18.016;2023-05-23T09:35:56;101107.06;;;25.80;29.41
14295;BME280;7231;59.370;18.016;2023-05-23T09:38:25;101100.50;;;26.17;29.17
14295;BME280;7231;59.370;18.016;2023-05-23T09:40:54;101103.91;;;26.76;29.05
14295;BME280;7231;59.370;18.016;2023-05-23T09:43:23;101106.38;;;27.57;27.92
14295;BME280;7231;59.370;18.016;2023-05-23T09:45:52;101104.41;;;27.86;27.28
14295;BME280;7231;59.370;18.016;2023-05-23T09:48:27;101078.78;;;27.97;27.35
14295;BME280;7231;59.370;18.016;2023-05-23T09:50:56;101107.09;;;27.86;26.95
14295;BME280;7231;59.370;18.016;2023-05-23T09:53:25;101109.97;;;27.81;27.30
14295;BME280;7231;59.370;18.016;2023-05-23T09:55:54;101113.66;;;28.02;26.98
14295;BME280;7231;59.370;18.016;2023-05-23T09:58:27;101106.56;;;27.99;27.13
14295;BME280;7231;59.370;18.016;2023-05-23T10:00:56;101114.13;;;27.90;26.52
14295;BME280;7231;59.370;18.016;2023-05-23T10:03:30;101086.56;;;27.60;26.67
14295;BME280;7231;59.370;18.016;2023-05-23T10:06:03;101109.28;;;27.76;26.98
14295;BME280;7231;59.370;18.016;2023-05-23T10:08:36;101110.47;;;28.14;25.76
14295;BME280;7231;59.370;18.016;2023-05-23T10:11:52;101108.75;;;28.11;26.06
14295;BME280;7231;59.370;18.016;2023-05-23T10:14:34;101098.91;;;27.89;25.69
14295;BME280;7231;59.370;18.016;2023-05-23T10:17:07;101110.59;;;27.41;25.53
14295;BME280;7231;59.370;18.016;2023-05-23T10:19:42;100976.00;;;26.43;25.51
14295;BME280;7231;59.370;18.016;2023-05-23T10:22:14;101073.63;;;26.96;25.64
14295;BME280;7231;59.370;18.016;2023-05-23T10:24:44;101102.69;;;27.36;26.05
14295;BME280;7231;59.370;18.016;2023-05-23T10:27:14;101107.03;;;27.40;25.48
14295;BME280;7231;59.370;18.016;2023-05-23T10:29:42;101090.63;;;27.46;25.49
14295;BME280;7231;59.370;18.016;2023-05-23T10:32:11;101090.75;;;27.43;24.85
14295;BME280;7231;59.370;18.016;2023-05-23T10:34:49;101108.25;;;27.55;25.11
14295;BME280;7231;59.370;18.016;2023-05-23T10:37:26;101095.47;;;27.37;24.32
14295;BME280;7231;59.370;18.016;2023-05-23T10:39:59;101095.09;;;27.71;24.85
14295;BME280;7231;59.370;18.016;2023-05-23T10:42:40;101086.38;;;27.88;24.09
14295;BME280;7231;59.370;18.016;2023-05-23T10:45:14;101092.00;;;28.27;24.67
14295;BME280;7231;59.370;18.016;2023-05-23T10:47:43;101087.72;;;28.63;23.96
14295;BME280;7231;59.370;18.016;2023-05-23T10:50:12;101094.91;;;28.85;23.58
14295;BME280;7231;59.370;18.016;2023-05-23T10:52:41;101089.59;;;28.83;23.33
14295;BME280;7231;59.370;18.016;2023-05-23T10:55:13;101085.44;;;28.74;24.15
14295;BME280;7231;59.370;18.016;2023-05-23T10:57:44;101093.09;;;28.21;23.65
14295;BME280;7231;59.370;18.016;2023-05-23T11:00:15;101063.06;;;26.90;24.13
14295;BME280;7231;59.370;18.016;2023-05-23T11:02:52;101103.09;;;27.26;25.28
14295;BME280;7231;59.370;18.016;2023-05-23T11:05:22;101081.38;;;27.54;24.84
14295;BME280;7231;59.370;18.016;2023-05-23T11:08:09;101090.00;;;28.08;25.32
14295;BME280;7231;59.370;18.016;2023-05-23T11:10:54;101085.50;;;28.53;24.14
14295;BME280;7231;59.370;18.016;2023-05-23T11:13:24;101092.50;;;28.36;24.54
14295;BME280;7231;59.370;18.016;2023-05-23T11:15:52;101109.59;;;28.13;24.58
14295;BME280;7231;59.370;18.016;2023-05-23T11:18:22;101084.81;;;28.04;25.38
14295;BME280;7231;59.370;18.016;2023-05-23T11:20:52;101031.84;;;27.81;24.23
14295;BME280;7231;59.370;18.016;2023-05-23T11:23:20;101049.00;;;27.78;24.14
14295;BME280;7231;59.370;18.016;2023-05-23T11:25:50;101112.47;;;28.09;24.07
14295;BME280;7231;59.370;18.016;2023-05-23T11:28:19;101097.00;;;28.36;23.95
14295;BME280;7231;59.370;18.016;2023-05-23T11:30:49;101104.78;;;28.64;23.62
14295;BME280;7231;59.370;18.016;2023-05-23T11:33:18;101081.91;;;28.72;23.32
14295;BME280;7231;59.370;18.016;2023-05-23T11:35:48;101109.78;;;28.73;23.07
14295;BME280;7231;59.370;18.016;2023-05-23T13:45:15;101097.00;;;30.86;21.13
14295;BME280;7231;59.370;18.016;2023-05-23T13:47:44;101102.88;;;31.12;20.92
14295;BME280;7231;59.370;18.016;2023-05-23T13:50:13;101098.22;;;31.31;20.54
14295;BME280;7231;59.370;18.016;2023-05-23T13:52:41;101088.75;;;31.22;20.26
14295;BME280;7231;59.370;18.016;2023-05-23T13:55:14;101089.81;;;31.03;20.68
14295;BME280;7231;59.370;18.016;2023-05-23T13:57:43;101110.50;;;31.21;20.41
14295;BME280;7231;59.370;18.016;2023-05-23T14:00:12;101099.41;;;31.25;20.60
14295;BME280;7231;59.370;18.016;2023-05-23T14:02:42;101077.47;;;31.14;20.13
14295;BME280;7231;59.370;18.016;2023-05-23T14:05:10;101115.31;;;30.98;20.15
14295;BME280;7231;59.370;18.016;2023-05-23T14:07:38;101076.88;;;30.39;20.11
14295;BME280;7231;59.370;18.016;2023-05-23T14:10:07;101111.19;;;30.38;20.67
14295;BME280;7231;59.370;18.016;2023-05-23T14:12:35;101110.59;;;30.31;20.23
14295;BME280;7231;59.370;18.016;2023-05-23T14:15:03;101121.66;;;30.27;20.09
14295;BME280;7231;59.370;18.016;2023-05-23T14:17:32;101102.56;;;29.92;20.27
14295;BME280;7231;59.370;18.016;2023-05-23T14:20:01;101121.53;;;30.47;20.41
14295;BME280;7231;59.370;18.016;2023-05-23T14:22:29;101115.47;;;30.78;20.09
14295;BME280;7231;59.370;18.016;2023-05-23T14:24:57;101080.47;;;30.56;20.19
14295;BME280;7231;59.370;18.016;2023-05-23T14:27:25;101118.41;;;31.08;19.37
14295;BME280;7231;59.370;18.016;2023-05-23T14:29:53;101129.41;;;30.88;19.50
14295;BME280;7231;59.370;18.016;2023-05-23T14:32:21;101086.28;;;30.49;19.89
14295;BME280;7231;59.370;18.016;2023-05-23T14:34:49;101138.34;;;30.90;19.78
14295;BME280;7231;59.370;18.016;2023-05-23T14:37:18;101137.63;;;31.04;19.49
14295;BME280;7231;59.370;18.016;2023-05-23T14:39:47;101146.72;;;31.20;19.25
14295;BME280;7231;59.370;18.016;2023-05-23T14:42:15;101135.69;;;31.06;19.14
14295;BME280;7231;59.370;18.016;2023-05-23T14:44:43;101137.84;;;30.99;19.26
14295;BME280;7231;59.370;18.016;2023-05-23T14:47:11;101109.75;;;31.35;18.90
14295;BME280;7231;59.370;18.016;2023-05-23T14:49:39;101139.66;;;31.66;18.72
14295;BME280;7231;59.370;18.016;2023-05-23T14:52:07;101139.88;;;31.46;18.56
14295;BME280;7231;59.370;18.016;2023-05-23T14:54:36;101145.31;;;31.28;18.59
14295;BME280;7231;59.370;18.016;2023-05-23T14:57:06;101146.31;;;30.57;18.89
14295;BME280;7231;59.370;18.016;2023-05-23T14:59:35;101153.66;;;30.36;19.43
14295;BME280;7231;59.370;18.016;2023-05-23T15:02:04;101151.00;;;31.07;19.14
14295;BME280;7231;59.370;18.016;2023-05-23T15:04:33;101152.38;;;31.48;18.57
14295;BME280;7231;59.370;18.016;2023-05-23T15:07:01;101135.63;;;31.07;18.50
14295;BME280;7231;59.370;18.016;2023-05-23T15:09:29;101151.91;;;30.35;18.83